Time;durP1;ratioP1;P1;durP2;ratioP2;P2;SDS_P1;SDS_P2;PMS_P1;PMS_P2;Temp;Humidity;BMP_temperature;BMP_pressure;BME280_temperature;BME280_humidity;BME280_pressure;Samples;Min_cycle;Max_cycle;Signal;HPM_P1;HPM_P2
2022/10/05 00:02:22;;;;;;;2.13;1.90;;;;;;;9.77;65.19;99126.25;5073905;28;20032;-56
2022/10/05 00:04:52;;;;;;;2.08;1.88;;;;;;;9.71;64.84;99124.13;5073905;28;20109;-57
2022/10/05 00:07:20;;;;;;;1.77;1.67;;;;;;;9.67;64.99;99117.38;5074157;28;20343;-57
2022/10/05 00:09:54;;;;;;;3.28;1.90;;;;;;;9.71;64.84;99119.63;5073215;28;20024;-59
2022/10/05 00:12:21;;;;;;;3.15;1.90;;;;;;;9.65;65.07;99119.34;5073399;28;20439;-59
2022/10/05 00:14:49;;;;;;;3.35;1.60;;;;;;;9.63;65.21;99117.63;5064550;28;20115;-59
2022/10/05 00:17:21;;;;;;;2.03;1.40;;;;;;;9.67;65.11;99117.38;5064580;28;20036;-58
2022/10/05 00:19:51;;;;;;;1.65;1.50;;;;;;;9.62;65.18;99112.41;5056815;28;20135;-55
2022/10/05 00:22:36;;;;;;;1.95;1.75;;;;;;;9.69;64.98;99112.72;5053488;28;20040;-56
2022/10/05 00:25:11;;;;;;;2.22;1.70;;;;;;;9.62;65.21;99115.91;5053594;28;20107;-56
2022/10/05 00:27:37;;;;;;;2.78;1.55;;;;;;;9.54;65.30;99118.44;5056329;28;20118;-56
2022/10/05 00:30:18;;;;;;;4.85;1.83;;;;;;;9.62;65.20;99115.09;5072702;28;20052;-58
2022/10/05 00:32:44;;;;;;;1.50;1.40;;;;;;;9.48;65.21;99109.13;5073413;28;20124;-58
2022/10/05 00:35:11;;;;;;;2.00;1.48;;;;;;;9.49;65.17;99118.00;5072778;28;20130;-57
2022/10/05 00:37:37;;;;;;;1.95;1.70;;;;;;;9.47;65.13;99117.28;5061467;28;20021;-55
2022/10/05 00:40:29;;;;;;;1.90;1.80;;;;;;;9.56;65.59;99120.97;5069708;28;20416;-54
2022/10/05 00:43:00;;;;;;;1.88;1.67;;;;;;;9.48;65.57;99117.13;5073049;28;20040;-57
2022/10/05 00:45:41;;;;;;;2.05;1.85;;;;;;;9.51;65.50;99123.19;5072969;28;20129;-54
2022/10/05 00:48:22;;;;;;;2.20;1.80;;;;;;;9.46;64.96;99110.25;5073058;28;20434;-56
2022/10/05 00:51:09;;;;;;;1.92;1.83;;;;;;;9.54;65.54;99114.94;5072015;28;20053;-56
2022/10/05 00:53:42;;;;;;;2.08;1.60;;;;;;;9.47;65.14;99114.63;5053527;28;20456;-55
2022/10/05 00:56:25;;;;;;;2.00;1.60;;;;;;;9.54;65.52;99122.94;5053067;28;20043;-58
2022/10/05 00:59:09;;;;;;;1.98;1.70;;;;;;;9.55;65.26;99124.63;5064518;28;20448;-55
2022/10/05 01:01:37;;;;;;;2.35;1.90;;;;;;;9.50;64.97;99116.16;5072811;28;20029;-57
2022/10/05 01:04:17;;;;;;;1.85;1.75;;;;;;;9.45;65.42;99119.25;5072900;28;20090;-57
2022/10/05 01:07:26;;;;;;;2.22;2.05;;;;;;;9.47;65.68;99123.47;5052871;28;20031;-56
2022/10/05 01:10:17;;;;;;;2.72;2.00;;;;;;;9.50;65.54;99121.50;4991188;28;20384;-55
2022/10/05 01:13:01;;;;;;;2.03;1.80;;;;;;;9.51;65.83;99125.88;5050218;28;20431;-56
2022/10/05 01:15:46;;;;;;;2.40;2.13;;;;;;;9.44;65.59;99128.25;5052604;28;20506;-55
2022/10/05 01:18:24;;;;;;;2.90;2.20;;;;;;;9.41;65.62;99125.84;5070278;28;20063;-54
2022/10/05 01:21:02;;;;;;;2.80;1.90;;;;;;;9.43;66.19;99132.72;5071709;28;20036;-56
2022/10/05 01:23:46;;;;;;;3.70;2.10;;;;;;;9.45;66.25;99130.78;5071636;28;20037;-56
2022/10/05 01:26:29;;;;;;;2.08;1.98;;;;;;;9.44;66.27;99136.25;5072484;28;20024;-59
2022/10/05 01:29:03;;;;;;;2.28;1.92;;;;;;;9.36;66.87;99136.06;5071619;28;20028;-58
2022/10/05 01:31:56;;;;;;;3.65;1.90;;;;;;;9.37;67.03;99125.25;5072309;28;20466;-55
2022/10/05 01:34:28;;;;;;;3.88;2.20;;;;;;;9.19;67.15;99103.66;5071939;28;20032;-56
2022/10/05 01:37:05;;;;;;;2.30;2.00;;;;;;;9.32;67.12;99128.31;5072108;28;20024;-58
2022/10/05 01:39:52;;;;;;;3.40;2.28;;;;;;;9.38;67.10;99132.28;5072269;28;20468;-56
2022/10/05 01:42:41;;;;;;;2.35;2.00;;;;;;;9.37;67.31;99127.06;5071889;28;20422;-54
2022/10/05 01:45:09;;;;;;;2.67;2.10;;;;;;;9.11;67.36;99098.13;5072228;28;20068;-59
2022/10/05 01:47:50;;;;;;;2.88;2.10;;;;;;;9.26;67.57;99125.34;5072201;28;20036;-57
2022/10/05 01:50:28;;;;;;;3.45;2.72;;;;;;;9.21;67.84;99119.53;5071883;28;20154;-57
2022/10/05 01:53:12;;;;;;;2.25;1.90;;;;;;;9.28;67.95;99123.38;5071926;28;20048;-57
2022/10/05 01:55:55;;;;;;;2.85;2.00;;;;;;;9.22;67.79;99129.25;5072491;28;20047;-56
2022/10/05 01:58:43;;;;;;;2.22;2.03;;;;;;;9.22;67.70;99130.13;5071326;28;20036;-55
2022/10/05 02:01:28;;;;;;;3.03;1.95;;;;;;;9.21;68.20;99138.25;5072586;28;20048;-55
2022/10/05 02:04:32;;;;;;;2.65;2.10;;;;;;;9.26;67.69;99130.66;5075905;28;20047;-57
2022/10/05 02:07:00;;;;;;;2.50;2.15;;;;;;;9.11;68.18;99135.50;5033943;28;20059;-54
2022/10/05 02:09:30;;;;;;;2.97;2.50;;;;;;;8.99;68.70;99130.25;5069052;28;20474;-56
2022/10/05 02:12:07;;;;;;;2.38;1.92;;;;;;;9.04;68.59;99138.72;5076302;28;20028;-54
2022/10/05 02:14:40;;;;;;;2.53;2.33;;;;;;;9.01;69.42;99135.44;5075334;28;20039;-55
2022/10/05 02:17:34;;;;;;;2.63;2.28;;;;;;;9.04;69.32;99137.84;5075634;28;20455;-55
2022/10/05 02:20:03;;;;;;;2.90;2.00;;;;;;;9.06;69.11;99130.59;5055160;28;20068;-54
2022/10/05 02:22:36;;;;;;;2.20;2.00;;;;;;;9.06;69.31;99138.59;5055658;28;20036;-53
2022/10/05 02:25:13;;;;;;;2.95;2.33;;;;;;;9.08;69.03;99144.66;5055550;28;20043;-55
2022/10/05 02:28:23;;;;;;;3.33;1.95;;;;;;;9.18;69.19;99140.19;5056067;28;20124;-55
2022/10/05 02:31:05;;;;;;;2.03;1.83;;;;;;;8.95;68.90;99112.81;4994439;28;20472;-56
2022/10/05 02:33:33;;;;;;;4.28;2.33;;;;;;;9.01;69.42;99138.97;5063217;28;20093;-55
2022/10/05 02:36:04;;;;;;;2.78;2.10;;;;;;;8.98;69.52;99146.41;5075377;28;20472;-58
2022/10/05 02:38:44;;;;;;;2.97;2.00;;;;;;;8.99;69.41;99143.59;5075190;28;20069;-55
2022/10/05 02:41:23;;;;;;;2.40;2.10;;;;;;;8.87;69.49;99121.47;5076049;28;20128;-56
2022/10/05 02:44:11;;;;;;;2.00;1.80;;;;;;;8.92;69.19;99134.41;5074907;28;20032;-55
2022/10/05 02:46:40;;;;;;;2.13;1.80;;;;;;;8.91;69.17;99143.38;5068759;28;20055;-56
2022/10/05 02:49:16;;;;;;;2.33;2.10;;;;;;;8.88;69.50;99139.19;5075084;28;20036;-58
2022/10/05 02:51:53;;;;;;;2.90;1.95;;;;;;;8.90;69.59;99144.38;5075805;28;20032;-57
2022/10/05 02:54:24;;;;;;;2.28;2.08;;;;;;;8.86;69.79;99143.81;5074084;28;20046;-56
2022/10/05 02:57:19;;;;;;;2.88;1.80;;;;;;;8.88;69.71;99144.50;5074794;28;20036;-55
2022/10/05 02:59:57;;;;;;;2.28;1.60;;;;;;;8.88;69.82;99147.19;5067934;28;20049;-56
2022/10/05 03:02:32;;;;;;;3.40;1.95;;;;;;;8.82;70.01;99145.03;5074798;28;20043;-58
2022/10/05 03:05:16;;;;;;;2.33;2.00;;;;;;;8.86;70.40;99140.28;5074873;28;20044;-59
2022/10/05 03:08:08;;;;;;;3.03;1.90;;;;;;;8.87;70.29;99147.31;5075228;28;20490;-58
2022/10/05 03:10:52;;;;;;;2.17;1.80;;;;;;;8.80;70.30;99144.34;5075091;28;21025;-57
2022/10/05 03:13:57;;;;;;;2.22;1.65;;;;;;;8.90;70.23;99149.72;5074414;28;20041;-58
2022/10/05 03:16:44;;;;;;;2.78;1.45;;;;;;;8.89;69.69;99156.03;5074628;28;20032;-63
2022/10/05 03:19:24;;;;;;;4.05;1.75;;;;;;;8.81;70.22;99147.84;5074817;28;20036;-57
2022/10/05 03:22:28;;;;;;;3.55;1.50;;;;;;;8.88;69.93;99149.00;5074912;28;20028;-58
2022/10/05 03:25:18;;;;;;;1.70;1.58;;;;;;;8.83;69.90;99153.88;5073827;28;20119;-56
2022/10/05 03:27:50;;;;;;;1.88;1.77;;;;;;;8.80;69.87;99156.81;5074706;28;20036;-58
2022/10/05 03:30:20;;;;;;;1.60;1.50;;;;;;;8.74;70.33;99151.03;5074710;28;20047;-62
2022/10/05 03:32:52;;;;;;;1.88;1.60;;;;;;;8.76;70.15;99159.75;5074365;28;20454;-59
2022/10/05 03:35:22;;;;;;;1.83;1.63;;;;;;;8.78;70.04;99162.28;5074773;28;20107;-57
2022/10/05 03:38:16;;;;;;;1.95;1.40;;;;;;;8.79;70.05;99163.13;5073873;28;20038;-56
2022/10/05 03:41:00;;;;;;;1.67;1.40;;;;;;;8.70;69.84;99160.28;5074749;28;20119;-57
2022/10/05 03:43:52;;;;;;;2.00;1.52;;;;;;;8.69;69.92;99155.03;5074261;28;20485;-60
2022/10/05 03:46:48;;;;;;;2.67;1.48;;;;;;;8.78;70.04;99164.94;5073847;28;20039;-59
2022/10/05 03:49:44;;;;;;;2.22;1.52;;;;;;;8.81;69.41;99169.19;5074152;28;20392;-59
2022/10/05 03:52:15;;;;;;;1.83;1.40;;;;;;;8.68;69.64;99162.22;5073913;28;20044;-55
2022/10/05 03:54:46;;;;;;;2.33;1.60;;;;;;;8.70;70.35;99168.28;5073989;28;20470;-60
2022/10/05 03:57:24;;;;;;;1.98;1.83;;;;;;;8.73;69.97;99165.34;5074286;28;20111;-58
2022/10/05 04:00:16;;;;;;;3.97;2.00;;;;;;;8.80;70.28;99164.81;5074138;28;20036;-56
2022/10/05 04:03:08;;;;;;;2.38;1.70;;;;;;;8.81;69.99;99171.84;5073080;28;20471;-60
2022/10/05 04:05:52;;;;;;;2.50;1.42;;;;;;;8.79;69.45;99166.63;5073786;28;20032;-56
2022/10/05 04:08:31;;;;;;;1.60;1.50;;;;;;;8.76;68.99;99169.56;5073864;28;20124;-60
2022/10/05 04:11:02;;;;;;;1.75;1.20;;;;;;;8.53;69.26;99145.63;5073142;28;20020;-54
2022/10/05 04:13:35;;;;;;;1.60;1.42;;;;;;;8.72;69.94;99177.00;5072270;28;20460;-60
2022/10/05 04:16:29;;;;;;;1.83;1.40;;;;;;;8.71;69.31;99169.97;5073609;28;20036;-53
2022/10/05 04:19:08;;;;;;;1.80;1.17;;;;;;;8.72;69.61;99179.66;5071066;28;20321;-57
2022/10/05 04:21:40;;;;;;;1.48;1.30;;;;;;;8.72;69.50;99182.34;5073354;28;20094;-61
2022/10/05 04:24:14;;;;;;;1.50;1.40;;;;;;;8.76;69.67;99173.09;5073580;28;20120;-57
2022/10/05 04:26:57;;;;;;;1.73;1.63;;;;;;;8.80;69.40;99171.03;5072714;28;20455;-56
2022/10/05 04:29:44;;;;;;;1.85;1.50;;;;;;;8.89;69.25;99178.25;5071872;28;20016;-58
2022/10/05 04:32:29;;;;;;;1.65;1.55;;;;;;;8.89;68.84;99180.06;5072865;28;20032;-58
2022/10/05 04:35:08;;;;;;;1.90;1.58;;;;;;;8.84;68.86;99179.59;5073232;28;20029;-56
2022/10/05 04:37:45;;;;;;;1.70;1.60;;;;;;;8.83;69.35;99185.91;5073143;28;20481;-58
2022/10/05 04:40:26;;;;;;;3.75;1.95;;;;;;;8.88;69.34;99181.91;5072830;28;20055;-58
2022/10/05 04:43:01;;;;;;;2.17;1.60;;;;;;;8.87;69.46;99190.00;5072852;28;20035;-54
2022/10/05 04:45:41;;;;;;;2.40;1.70;;;;;;;8.96;69.53;99188.41;5073104;28;20123;-58
2022/10/05 04:48:07;;;;;;;2.22;2.03;;;;;;;8.88;69.32;99181.03;5072763;28;20036;-59
2022/10/05 04:51:00;;;;;;;3.80;2.28;;;;;;;8.95;69.79;99186.72;5072609;28;20490;-57
2022/10/05 04:53:30;;;;;;;3.80;1.75;;;;;;;8.92;69.29;99186.97;5072015;28;20051;-59
2022/10/05 04:56:19;;;;;;;4.35;2.70;;;;;;;9.00;69.98;99184.50;5072853;28;20572;-55
2022/10/05 04:58:59;;;;;;;3.13;2.40;;;;;;;8.94;70.52;99196.56;5072308;28;20116;-57
2022/10/05 05:01:40;;;;;;;2.13;1.92;;;;;;;8.85;70.64;99187.50;5072650;28;20043;-56
2022/10/05 05:04:24;;;;;;;3.58;2.15;;;;;;;8.96;70.40;99189.25;5072907;28;20074;-53
2022/10/05 05:07:07;;;;;;;3.08;2.10;;;;;;;8.96;70.67;99199.94;5070408;28;20056;-54
2022/10/05 05:09:48;;;;;;;4.85;2.60;;;;;;;8.97;70.98;99198.97;5072348;28;20086;-57
2022/10/05 05:12:42;;;;;;;3.38;2.20;;;;;;;8.98;70.95;99200.66;5072441;28;20032;-59
2022/10/05 05:15:31;;;;;;;2.03;1.80;;;;;;;9.00;70.78;99190.69;5052490;28;20040;-56
2022/10/05 05:18:14;;;;;;;2.17;1.92;;;;;;;8.88;69.98;99165.88;5072248;28;20874;-57
2022/10/05 05:21:03;;;;;;;2.53;2.03;;;;;;;9.05;69.96;99201.81;5068387;28;20029;-57
2022/10/05 05:23:55;;;;;;;2.42;1.75;;;;;;;9.17;69.78;99194.59;5052235;28;20109;-54
2022/10/05 05:26:58;;;;;;;3.78;1.75;;;;;;;9.29;68.93;99192.69;5068245;28;20109;-56
2022/10/05 05:30:11;;;;;;;3.17;1.67;;;;;;;9.30;68.75;99186.38;5072091;28;20033;-53
2022/10/05 05:32:45;;;;;;;1.98;1.35;;;;;;;9.32;68.66;99191.59;5048816;28;20462;-50
2022/10/05 05:35:13;;;;;;;3.03;1.60;;;;;;;9.27;67.86;99181.31;5071511;28;20040;-54
2022/10/05 05:37:49;;;;;;;2.28;1.75;;;;;;;9.36;68.86;99190.34;5071386;28;20040;-51
2022/10/05 05:40:21;;;;;;;3.17;1.77;;;;;;;9.25;68.62;99167.25;5072185;28;20025;-52
2022/10/05 05:43:14;;;;;;;1.95;1.70;;;;;;;9.51;67.88;99185.50;5072094;28;20130;-50
2022/10/05 05:46:09;;;;;;;2.97;1.60;;;;;;;9.53;67.76;99196.09;5072118;28;20028;-54
2022/10/05 05:48:42;;;;;;;2.50;1.60;;;;;;;9.54;66.77;99193.25;5071463;28;20419;-54
2022/10/05 05:51:13;;;;;;;2.22;1.60;;;;;;;9.48;66.58;99209.84;5072066;28;20049;-55
2022/10/05 05:53:43;;;;;;;2.10;1.60;;;;;;;9.45;67.42;99207.44;5071873;28;20090;-54
2022/10/05 05:56:13;;;;;;;2.75;1.48;;;;;;;9.44;67.22;99213.75;5071767;28;20024;-58
2022/10/05 05:58:41;;;;;;;3.15;1.50;;;;;;;9.40;67.57;99205.13;5071859;28;20116;-54
2022/10/05 06:01:24;;;;;;;2.22;1.60;;;;;;;9.48;68.21;99212.50;5071169;28;20021;-53
2022/10/05 06:03:58;;;;;;;2.55;1.45;;;;;;;9.42;67.72;99208.53;5072249;28;20024;-54
2022/10/05 06:06:33;;;;;;;2.10;1.60;;;;;;;9.41;68.13;99203.34;5071898;28;20031;-59
2022/10/05 06:09:04;;;;;;;1.70;1.40;;;;;;;9.42;68.01;99210.38;5071069;28;20043;-56
2022/10/05 06:11:39;;;;;;;1.98;1.40;;;;;;;9.45;67.76;99210.09;5072137;28;20126;-56
2022/10/05 06:14:15;;;;;;;6.15;1.70;;;;;;;9.51;67.40;99216.72;5071394;28;20162;-54
2022/10/05 06:16:47;;;;;;;2.25;1.50;;;;;;;9.46;67.10;99222.47;5071546;28;20475;-56
2022/10/05 06:19:20;;;;;;;3.88;1.80;;;;;;;9.45;68.02;99226.13;5071052;28;20025;-55
2022/10/05 06:22:03;;;;;;;2.85;1.50;;;;;;;9.50;67.66;99223.03;5071759;28;20470;-56
2022/10/05 06:25:18;;;;;;;2.83;1.20;;;;;;;9.55;66.65;99226.19;5070305;28;20111;-56
2022/10/05 06:28:09;;;;;;;4.10;1.23;;;;;;;9.62;66.66;99224.66;5062632;28;20063;-57
2022/10/05 06:31:00;;;;;;;3.65;1.60;;;;;;;9.67;66.84;99224.28;5072103;28;20047;-54
2022/10/05 06:33:39;;;;;;;5.00;1.45;;;;;;;9.73;67.09;99235.28;5071259;28;20047;-60
2022/10/05 06:36:19;;;;;;;2.05;1.25;;;;;;;9.85;65.79;99243.22;5071501;28;20029;-58
2022/10/05 06:38:56;;;;;;;5.55;1.08;;;;;;;10.02;64.79;99239.94;5070914;28;20108;-53
2022/10/05 06:41:53;;;;;;;3.63;1.27;;;;;;;10.21;63.97;99248.97;5072211;28;20394;-58
2022/10/05 06:44:30;;;;;;;9.95;1.77;;;;;;;10.28;64.02;99247.47;5069855;28;20405;-56
2022/10/05 06:47:27;;;;;;;5.95;0.90;;;;;;;10.41;63.37;99254.41;5071345;28;20048;-58
2022/10/05 06:50:03;;;;;;;6.05;1.75;;;;;;;10.53;63.71;99255.16;5073488;28;20048;-55
2022/10/05 06:52:41;;;;;;;9.98;4.97;;;;;;;10.63;63.22;99248.00;5075141;28;20037;-57
2022/10/05 06:55:27;;;;;;;9.98;4.30;;;;;;;10.74;63.26;99255.91;5075119;28;20043;-59
2022/10/05 06:58:25;;;;;;;2.72;1.13;;;;;;;10.82;62.65;99259.69;5065428;28;20465;-59
2022/10/05 07:01:28;;;;;;;6.57;3.10;;;;;;;10.94;62.59;99263.94;5072467;28;20066;-59
2022/10/05 07:03:53;;;;;;;3.38;1.30;;;;;;;11.19;60.89;99259.03;5050563;28;20049;-58
2022/10/05 07:06:50;;;;;;;1.00;0.63;;;;;;;11.52;60.42;99259.53;5072714;28;20510;-60
2022/10/05 07:09:21;;;;;;;1.45;0.80;;;;;;;11.98;59.85;99266.88;5064346;28;20056;-60
2022/10/05 07:12:13;;;;;;;1.63;1.10;;;;;;;12.42;58.98;99269.84;5074664;28;20237;-60
2022/10/05 07:14:50;;;;;;;1.58;0.85;;;;;;;12.58;57.35;99276.41;5064508;28;20044;-61
2022/10/05 07:17:29;;;;;;;3.20;1.00;;;;;;;12.72;57.05;99275.88;5072723;28;20036;-59
2022/10/05 07:20:16;;;;;;;3.17;0.93;;;;;;;12.93;56.92;99269.38;5074024;28;20044;-59
2022/10/05 07:22:50;;;;;;;4.70;1.40;;;;;;;13.04;56.11;99282.59;5073939;28;20097;-61
2022/10/05 07:25:21;;;;;;;2.13;1.30;;;;;;;13.05;55.73;99284.28;5074233;28;20036;-59
2022/10/05 07:27:58;;;;;;;4.30;1.10;;;;;;;13.09;55.37;99279.44;5082033;28;20093;-62
2022/10/05 07:30:23;;;;;;;3.33;1.15;;;;;;;13.07;55.09;99278.75;5072415;28;20040;-56
2022/10/05 07:33:01;;;;;;;6.47;1.40;;;;;;;13.17;54.65;99282.22;5074177;28;20524;-60
2022/10/05 07:38:36;;;;;;;3.45;1.17;;;;;;;13.16;54.64;99290.41;5074436;28;20374;-61
2022/10/05 07:41:30;;;;;;;3.33;1.38;;;;;;;13.36;55.83;99291.09;5073869;28;20036;-60
2022/10/05 07:44:17;;;;;;;4.25;1.45;;;;;;;13.45;53.45;99295.56;5087620;28;20032;-58
2022/10/05 07:46:53;;;;;;;9.60;1.55;;;;;;;13.29;54.04;99295.41;5093173;28;20031;-60
2022/10/05 07:49:40;;;;;;;5.28;1.70;;;;;;;13.31;54.83;99296.94;5072535;28;20074;-59
2022/10/05 07:52:15;;;;;;;2.45;1.30;;;;;;;13.00;54.55;99308.06;5071961;28;20044;-57
2022/10/05 07:55:01;;;;;;;2.85;1.50;;;;;;;12.94;55.62;99310.53;5071763;28;20032;-62
2022/10/05 07:57:44;;;;;;;3.40;1.55;;;;;;;12.83;55.84;99312.41;5072042;28;20039;-61
2022/10/05 08:00:19;;;;;;;3.22;1.48;;;;;;;12.87;55.01;99312.97;5072080;28;20029;-60
2022/10/05 08:03:05;;;;;;;4.10;1.60;;;;;;;12.88;55.45;99317.34;5073374;28;20039;-60
2022/10/05 08:05:34;;;;;;;3.58;1.30;;;;;;;12.61;54.82;99319.91;5073619;28;20478;-62
2022/10/05 08:08:14;;;;;;;3.55;1.02;;;;;;;12.47;55.79;99325.78;5073297;28;20102;-61
2022/10/05 08:10:54;;;;;;;3.05;1.48;;;;;;;12.30;56.25;99327.41;5072745;28;20429;-62
2022/10/05 08:13:48;;;;;;;5.50;1.40;;;;;;;12.14;57.21;99319.97;5079160;28;20144;-60
2022/10/05 08:16:15;;;;;;;4.45;1.75;;;;;;;11.85;57.22;99321.72;5089311;28;20024;-58
2022/10/05 08:18:43;;;;;;;5.00;1.90;;;;;;;11.76;58.23;99317.22;5072732;28;20455;-60
2022/10/05 08:21:10;;;;;;;4.82;2.00;;;;;;;11.66;58.62;99330.63;5072775;28;20145;-62
2022/10/05 08:23:57;;;;;;;4.45;1.80;;;;;;;11.55;59.74;99328.94;5072965;28;20024;-58
2022/10/05 08:27:00;;;;;;;4.93;1.77;;;;;;;11.60;60.67;99341.94;5073041;28;20054;-58
2022/10/05 08:29:33;;;;;;;3.33;1.58;;;;;;;11.43;61.19;99335.47;5084920;28;20041;-63
2022/10/05 08:32:03;;;;;;;3.20;2.00;;;;;;;11.29;61.65;99336.72;5067135;28;20453;-61
2022/10/05 08:34:51;;;;;;;1.50;1.40;;;;;;;11.30;62.13;99331.22;5060351;28;20029;-63
2022/10/05 08:37:20;;;;;;;4.15;1.30;;;;;;;11.17;61.43;99336.84;5061687;28;20039;-61
2022/10/05 08:39:59;;;;;;;5.53;1.60;;;;;;;11.20;61.58;99338.41;5052686;28;20033;-61
2022/10/05 08:42:30;;;;;;;7.10;1.48;;;;;;;11.15;61.62;99343.34;5057939;28;20544;-61
2022/10/05 08:45:33;;;;;;;9.05;1.70;;;;;;;11.46;61.25;99346.75;5072616;28;20040;-61
2022/10/05 08:47:58;;;;;;;7.55;1.30;;;;;;;11.66;59.76;99341.34;5072761;28;20051;-61
2022/10/05 08:50:55;;;;;;;8.00;1.45;;;;;;;11.94;59.40;99348.66;5072424;28;20451;-58
2022/10/05 08:53:39;;;;;;;2.65;1.30;;;;;;;12.17;58.84;99351.88;5072611;28;20044;-59
2022/10/05 08:56:26;;;;;;;5.15;1.27;;;;;;;12.32;58.54;99352.28;5072883;28;20040;-60
2022/10/05 08:59:17;;;;;;;3.83;1.30;;;;;;;12.24;59.48;99360.19;5064922;28;20504;-59
2022/10/05 09:01:55;;;;;;;1.23;0.95;;;;;;;11.94;60.74;99354.88;5071794;28;20040;-61
2022/10/05 09:04:34;;;;;;;1.30;0.70;;;;;;;11.62;62.20;99359.59;5071726;28;20044;-61
2022/10/05 09:07:43;;;;;;;1.63;0.95;;;;;;;11.55;63.55;99369.16;5072699;28;20028;-61
2022/10/05 09:10:27;;;;;;;1.67;0.98;;;;;;;11.38;64.04;99369.88;5071741;28;20024;-59
2022/10/05 09:13:22;;;;;;;1.17;0.90;;;;;;;11.44;64.95;99372.00;5070854;28;20052;-61
2022/10/05 09:16:22;;;;;;;1.33;0.80;;;;;;;11.61;65.21;99365.06;5051387;28;20025;-61
2022/10/05 09:19:28;;;;;;;3.22;0.82;;;;;;;11.92;64.18;99376.47;5062763;28;20024;-60
2022/10/05 09:22:00;;;;;;;3.60;0.77;;;;;;;12.13;63.09;99375.47;5052618;28;20079;-58
2022/10/05 09:24:38;;;;;;;1.20;0.60;;;;;;;12.36;61.59;99377.81;5052071;28;20043;-60
2022/10/05 09:27:13;;;;;;;2.75;0.90;;;;;;;12.49;60.26;99358.69;5052544;28;20032;-59
2022/10/05 09:30:05;;;;;;;1.67;0.80;;;;;;;12.97;59.54;99386.28;5067176;28;20443;-61
2022/10/05 09:32:45;;;;;;;3.50;1.02;;;;;;;13.05;58.43;99380.16;5071865;28;20082;-62
2022/10/05 09:35:38;;;;;;;0.93;0.63;;;;;;;13.33;58.54;99386.34;5072408;28;20036;-59
2022/10/05 09:38:28;;;;;;;2.65;0.60;;;;;;;13.58;58.46;99391.13;5070923;28;20093;-58
2022/10/05 09:41:05;;;;;;;1.20;0.70;;;;;;;13.77;57.48;99379.38;5071580;28;20044;-60
2022/10/05 09:43:49;;;;;;;2.90;0.88;;;;;;;13.82;56.53;99387.84;5068373;28;20489;-60
2022/10/05 09:46:52;;;;;;;4.57;0.82;;;;;;;14.15;56.23;99385.38;5051648;28;20120;-52
2022/10/05 09:49:49;;;;;;;0.93;0.60;;;;;;;14.51;55.65;99381.72;5057058;28;20454;-53
2022/10/05 09:52:30;;;;;;;1.40;0.70;;;;;;;14.57;53.35;99381.06;5072110;28;20115;-56
2022/10/05 09:55:46;;;;;;;0.85;0.60;;;;;;;14.79;53.19;99395.00;5071119;28;20043;-57
2022/10/05 09:58:33;;;;;;;0.80;0.43;;;;;;;14.71;53.69;99393.13;5053738;28;20115;-55
2022/10/05 10:01:15;;;;;;;0.80;0.55;;;;;;;14.41;53.24;99389.06;5052444;28;20072;-57
2022/10/05 10:03:59;;;;;;;0.73;0.40;;;;;;;14.37;53.69;99398.47;5051889;28;20029;-57
2022/10/05 10:06:47;;;;;;;2.20;0.45;;;;;;;14.14;54.69;99402.53;5051483;28;20033;-56
2022/10/05 10:09:43;;;;;;;0.82;0.40;;;;;;;13.97;55.29;99406.09;5051736;28;20036;-58
2022/10/05 10:12:08;;;;;;;2.77;0.50;;;;;;;13.91;54.54;99412.97;5064024;28;20126;-55
2022/10/05 10:15:22;;;;;;;0.70;0.60;;;;;;;14.19;54.24;99416.34;5070255;28;20115;-60
2022/10/05 10:18:30;;;;;;;2.13;0.98;;;;;;;14.26;54.24;99413.88;5068033;28;20469;-58
2022/10/05 10:21:33;;;;;;;1.13;0.68;;;;;;;14.46;53.94;99413.66;5071649;28;20078;-59
2022/10/05 10:24:13;;;;;;;3.38;0.70;;;;;;;14.72;52.80;99420.91;5071892;28;20518;-60
2022/10/05 10:27:15;;;;;;;1.58;0.70;;;;;;;14.86;52.47;99414.06;5075135;28;20036;-58
2022/10/05 10:29:46;;;;;;;1.98;0.50;;;;;;;14.60;52.58;99415.78;5076993;28;20025;-57
2022/10/05 10:32:33;;;;;;;3.25;0.65;;;;;;;14.42;53.10;99415.00;5055572;28;20059;-58
2022/10/05 10:35:59;;;;;;;1.20;0.82;;;;;;;14.13;54.11;99417.00;5055516;28;20052;-59
2022/10/05 10:38:31;;;;;;;1.70;0.90;;;;;;;13.69;55.14;99435.78;5013399;28;20056;-56
2022/10/05 10:41:24;;;;;;;2.10;0.73;;;;;;;13.53;55.91;99433.78;5013956;28;20030;-57
2022/10/05 10:44:11;;;;;;;1.17;0.80;;;;;;;13.40;55.87;99431.44;5013574;28;20038;-57
2022/10/05 10:47:14;;;;;;;1.33;0.80;;;;;;;13.29;55.32;99428.00;5053017;28;20120;-57
2022/10/05 10:50:13;;;;;;;2.47;0.98;;;;;;;13.17;55.83;99438.09;5052955;28;20041;-56
2022/10/05 10:52:53;;;;;;;2.75;0.95;;;;;;;12.83;55.20;99437.84;5053109;28;20040;-58
2022/10/05 10:55:34;;;;;;;1.10;0.77;;;;;;;12.56;56.48;99434.97;5036127;28;20064;-57
2022/10/05 10:58:27;;;;;;;1.00;0.90;;;;;;;12.41;57.85;99447.16;5053001;28;20436;-57
2022/10/05 11:01:23;;;;;;;1.95;1.10;;;;;;;12.15;59.00;99448.63;5036359;28;20317;-58
2022/10/05 11:04:16;;;;;;;;;;;;;;;12.30;58.16;99449.03;5033315;28;20128;-58
2022/10/05 11:06:44;;;;;;;4.43;1.30;;;;;;;12.01;59.55;99454.44;5032501;28;20343;-57
2022/10/05 11:09:47;;;;;;;2.33;1.13;;;;;;;12.14;60.15;99452.31;5053410;28;20040;-57
2022/10/05 11:12:28;;;;;;;1.52;1.02;;;;;;;12.43;60.92;99466.69;5074615;28;20024;-57
2022/10/05 11:15:12;;;;;;;3.67;1.60;;;;;;;12.82;59.75;99461.16;5081060;28;20020;-56
2022/10/05 11:18:14;;;;;;;1.92;0.98;;;;;;;13.15;58.51;99456.22;5094863;28;20036;-58
2022/10/05 11:21:17;;;;;;;1.92;0.63;;;;;;;13.37;56.33;99458.66;5094995;28;20043;-58
2022/10/05 11:24:05;;;;;;;2.05;0.73;;;;;;;13.32;56.25;99462.63;5095087;28;20109;-61
2022/10/05 11:26:40;;;;;;;1.13;0.57;;;;;;;13.03;55.12;99463.66;5094302;28;20085;-55
2022/10/05 11:29:24;;;;;;;3.35;0.70;;;;;;;12.88;56.33;99465.13;5094689;28;20473;-58
2022/10/05 11:32:01;;;;;;;3.67;0.65;;;;;;;12.74;57.19;99475.34;5054570;28;20132;-55
2022/10/05 11:34:27;;;;;;;0.65;0.55;;;;;;;12.55;57.36;99478.94;5072212;28;20040;-55
2022/10/05 11:37:01;;;;;;;6.07;0.93;;;;;;;12.52;57.07;99487.28;5073784;28;20348;-60
2022/10/05 11:39:54;;;;;;;5.80;1.15;;;;;;;12.55;56.63;99486.16;5073601;28;20115;-60
2022/10/05 11:42:38;;;;;;;7.55;1.80;;;;;;;12.49;57.04;99482.22;5074025;28;20126;-61
2022/10/05 11:45:24;;;;;;;3.28;0.80;;;;;;;12.64;55.84;99483.41;5078167;28;20038;-62
2022/10/05 11:48:03;;;;;;;;;;;;;;;12.87;56.38;99490.28;5095022;28;20442;-60
2022/10/05 11:50:51;;;;;;;5.30;0.70;;;;;;;12.51;55.48;99499.00;5078105;28;20027;-59
2022/10/05 11:53:25;;;;;;;1.98;1.63;;;;;;;12.27;57.65;99504.84;5073878;28;20371;-58
2022/10/05 11:56:15;;;;;;;2.13;0.68;;;;;;;12.20;59.05;99516.16;5074086;28;20102;-60
2022/10/05 11:58:53;;;;;;;2.42;0.80;;;;;;;12.09;60.27;99508.25;5054000;28;20029;-61
2022/10/05 12:01:18;;;;;;;1.70;0.52;;;;;;;11.96;60.88;99513.88;5071199;28;20036;-62
2022/10/05 12:04:15;;;;;;;2.78;0.60;;;;;;;11.98;61.07;99522.63;5073748;28;20116;-59
2022/10/05 12:07:16;;;;;;;2.85;0.80;;;;;;;11.93;61.27;99522.19;5074153;28;20020;-58
2022/10/05 12:12:56;;;;;;;1.95;0.68;;;;;;;11.86;60.97;99532.63;5073081;28;20043;-62
2022/10/05 12:15:30;;;;;;;2.25;0.50;;;;;;;11.83;61.08;99530.25;5067951;28;20939;-61
2022/10/05 12:18:05;;;;;;;1.02;0.70;;;;;;;11.81;61.22;99521.47;5053068;28;20405;-57
2022/10/05 12:20:39;;;;;;;2.15;0.70;;;;;;;11.89;60.55;99527.00;5053657;28;20071;-60
2022/10/05 12:23:13;;;;;;;1.48;0.55;;;;;;;11.95;60.34;99540.81;5052291;28;20420;-61
2022/10/05 12:25:48;;;;;;;2.53;0.63;;;;;;;11.92;60.74;99539.25;5068177;28;20112;-60
2022/10/05 12:28:19;;;;;;;2.97;0.80;;;;;;;11.93;61.40;99546.31;5060016;28;20040;-59
2022/10/05 12:31:15;;;;;;;2.72;0.95;;;;;;;12.06;61.78;99546.09;5078077;28;20046;-60
2022/10/05 12:34:00;;;;;;;2.65;1.00;;;;;;;12.06;62.52;99546.94;5052705;28;20470;-61
2022/10/05 12:36:59;;;;;;;3.90;0.95;;;;;;;12.02;61.75;99544.66;5069028;28;20040;-60
2022/10/05 12:39:37;;;;;;;4.32;1.23;;;;;;;11.91;62.76;99550.97;5065007;28;20539;-62
2022/10/05 12:42:14;;;;;;;1.45;0.98;;;;;;;11.83;62.42;99540.97;5072505;28;20047;-60
2022/10/05 12:44:49;;;;;;;1.20;0.75;;;;;;;11.76;62.13;99524.56;5072719;28;20450;-61
2022/10/05 12:47:31;;;;;;;1.30;0.77;;;;;;;11.97;61.73;99554.94;5071314;28;20036;-60
2022/10/05 12:50:02;;;;;;;2.38;0.80;;;;;;;11.95;61.45;99546.19;5072492;28;20036;-60
2022/10/05 12:52:51;;;;;;;2.35;0.70;;;;;;;12.05;62.41;99547.94;5072721;28;20078;-60
2022/10/05 12:55:44;;;;;;;2.20;0.90;;;;;;;12.03;61.58;99546.34;5071572;28;20336;-62
2022/10/05 12:58:28;;;;;;;1.58;0.65;;;;;;;12.00;61.65;99547.47;5072420;28;20459;-59